sensor_id;sensor_type;location;lat;lon;timestamp;P1;durP1;ratioP1;P2;durP2;ratioP2
21941;SDS011;11135;54.192;15.670;2022-08-19T00:02:02;8.77;;;7.97;;
21941;SDS011;11135;54.192;15.670;2022-08-19T00:08:06;8.60;;;7.80;;
21941;SDS011;11135;54.192;15.670;2022-08-19T00:14:10;7.90;;;7.10;;
21941;SDS011;11135;54.192;15.670;2022-08-19T00:20:19;8.35;;;7.55;;
21941;SDS011;11135;54.192;15.670;2022-08-19T00:26:24;8.57;;;7.78;;
21941;SDS011;11135;54.192;15.670;2022-08-19T00:32:28;8.30;;;7.57;;
21941;SDS011;11135;54.192;15.670;2022-08-19T00:38:36;8.07;;;7.38;;
21941;SDS011;11135;54.192;15.670;2022-08-19T00:44:44;9.10;;;8.20;;
21941;SDS011;11135;54.192;15.670;2022-08-19T00:50:48;9.02;;;7.97;;
21941;SDS011;11135;54.192;15.670;2022-08-19T00:56:54;8.55;;;7.75;;
21941;SDS011;11135;54.192;15.670;2022-08-19T01:02:58;8.07;;;7.28;;
21941;SDS011;11135;54.192;15.670;2022-08-19T01:09:01;8.50;;;7.75;;
21941;SDS011;11135;54.192;15.670;2022-08-19T01:15:08;7.97;;;7.18;;
21941;SDS011;11135;54.192;15.670;2022-08-19T01:21:16;8.30;;;7.20;;
21941;SDS011;11135;54.192;15.670;2022-08-19T01:27:27;8.93;;;8.02;;
21941;SDS011;11135;54.192;15.670;2022-08-19T01:33:44;7.60;;;6.80;;
21941;SDS011;11135;54.192;15.670;2022-08-19T01:39:48;8.13;;;7.32;;
21941;SDS011;11135;54.192;15.670;2022-08-19T01:45:53;8.63;;;7.28;;
21941;SDS011;11135;54.192;15.670;2022-08-19T01:51:59;8.43;;;7.63;;
21941;SDS011;11135;54.192;15.670;2022-08-19T01:58:03;8.43;;;7.55;;
21941;SDS011;11135;54.192;15.670;2022-08-19T02:04:10;8.57;;;7.75;;
21941;SDS011;11135;54.192;15.670;2022-08-19T02:10:15;9.45;;;8.45;;
21941;SDS011;11135;54.192;15.670;2022-08-19T02:16:20;9.07;;;7.60;;
21941;SDS011;11135;54.192;15.670;2022-08-19T02:22:26;8.80;;;7.72;;
21941;SDS011;11135;54.192;15.670;2022-08-19T02:28:30;9.38;;;7.68;;
21941;SDS011;11135;54.192;15.670;2022-08-19T02:34:34;8.73;;;7.82;;
21941;SDS011;11135;54.192;15.670;2022-08-19T02:40:39;8.10;;;7.30;;
21941;SDS011;11135;54.192;15.670;2022-08-19T02:46:42;8.88;;;7.88;;
21941;SDS011;11135;54.192;15.670;2022-08-19T02:52:47;8.00;;;7.30;;
21941;SDS011;11135;54.192;15.670;2022-08-19T02:58:52;8.05;;;7.30;;
21941;SDS011;11135;54.192;15.670;2022-08-19T03:04:56;7.72;;;7.03;;
21941;SDS011;11135;54.192;15.670;2022-08-19T03:11:00;8.73;;;7.47;;
21941;SDS011;11135;54.192;15.670;2022-08-19T03:17:05;8.32;;;7.53;;
21941;SDS011;11135;54.192;15.670;2022-08-19T03:23:10;8.07;;;7.38;;
21941;SDS011;11135;54.192;15.670;2022-08-19T03:29:14;8.35;;;7.63;;
21941;SDS011;11135;54.192;15.670;2022-08-19T03:35:33;8.50;;;7.80;;
21941;SDS011;11135;54.192;15.670;2022-08-19T03:41:39;8.32;;;7.53;;
21941;SDS011;11135;54.192;15.670;2022-08-19T03:47:46;7.68;;;6.97;;
21941;SDS011;11135;54.192;15.670;2022-08-19T03:53:51;8.73;;;7.28;;
21941;SDS011;11135;54.192;15.670;2022-08-19T03:59:56;8.00;;;7.20;;
21941;SDS011;11135;54.192;15.670;2022-08-19T04:06:15;8.05;;;7.22;;
21941;SDS011;11135;54.192;15.670;2022-08-19T04:12:21;9.30;;;7.03;;
21941;SDS011;11135;54.192;15.670;2022-08-19T04:18:25;7.32;;;6.63;;
21941;SDS011;11135;54.192;15.670;2022-08-19T04:24:37;7.53;;;6.82;;
21941;SDS011;11135;54.192;15.670;2022-08-19T04:30:43;7.97;;;7.15;;
21941;SDS011;11135;54.192;15.670;2022-08-19T04:36:49;8.50;;;7.65;;
21941;SDS011;11135;54.192;15.670;2022-08-19T04:42:54;12.45;;;8.32;;
21941;SDS011;11135;54.192;15.670;2022-08-19T04:49:00;9.60;;;8.65;;
21941;SDS011;11135;54.192;15.670;2022-08-19T04:55:14;11.45;;;8.50;;
21941;SDS011;11135;54.192;15.670;2022-08-19T05:01:19;10.10;;;9.10;;
21941;SDS011;11135;54.192;15.670;2022-08-19T05:07:26;8.95;;;8.10;;
21941;SDS011;11135;54.192;15.670;2022-08-19T05:13:30;11.48;;;9.07;;
21941;SDS011;11135;54.192;15.670;2022-08-19T05:19:33;9.40;;;8.60;;
21941;SDS011;11135;54.192;15.670;2022-08-19T05:25:58;10.27;;;9.35;;
21941;SDS011;11135;54.192;15.670;2022-08-19T05:32:02;9.85;;;8.93;;
21941;SDS011;11135;54.192;15.670;2022-08-19T05:38:07;10.40;;;9.48;;
21941;SDS011;11135;54.192;15.670;2022-08-19T05:44:14;10.57;;;9.50;;
21941;SDS011;11135;54.192;15.670;2022-08-19T05:50:18;10.30;;;9.20;;
21941;SDS011;11135;54.192;15.670;2022-08-19T05:56:22;10.50;;;9.50;;
21941;SDS011;11135;54.192;15.670;2022-08-19T06:02:28;11.80;;;10.60;;
21941;SDS011;11135;54.192;15.670;2022-08-19T06:08:33;11.13;;;10.13;;
21941;SDS011;11135;54.192;15.670;2022-08-19T06:14:38;11.65;;;10.55;;
21941;SDS011;11135;54.192;15.670;2022-08-19T06:20:44;11.25;;;10.23;;
21941;SDS011;11135;54.192;15.670;2022-08-19T06:26:57;11.65;;;10.48;;
21941;SDS011;11135;54.192;15.670;2022-08-19T06:33:02;12.13;;;11.13;;
21941;SDS011;11135;54.192;15.670;2022-08-19T06:39:08;11.30;;;10.27;;
21941;SDS011;11135;54.192;15.670;2022-08-19T06:45:13;12.68;;;10.75;;
21941;SDS011;11135;54.192;15.670;2022-08-19T06:51:17;10.90;;;9.90;;
21941;SDS011;11135;54.192;15.670;2022-08-19T06:57:23;11.30;;;10.30;;
21941;SDS011;11135;54.192;15.670;2022-08-19T07:03:29;12.50;;;11.32;;
21941;SDS011;11135;54.192;15.670;2022-08-19T07:09:39;12.45;;;11.27;;
21941;SDS011;11135;54.192;15.670;2022-08-19T07:15:45;11.63;;;10.52;;
21941;SDS011;11135;54.192;15.670;2022-08-19T07:21:50;13.20;;;11.88;;
21941;SDS011;11135;54.192;15.670;2022-08-19T07:27:55;15.27;;;13.48;;
21941;SDS011;11135;54.192;15.670;2022-08-19T07:34:04;13.45;;;12.18;;
21941;SDS011;11135;54.192;15.670;2022-08-19T07:40:09;14.20;;;12.82;;
21941;SDS011;11135;54.192;15.670;2022-08-19T07:46:14;14.23;;;13.02;;
21941;SDS011;11135;54.192;15.670;2022-08-19T07:52:20;13.50;;;12.40;;
21941;SDS011;11135;54.192;15.670;2022-08-19T07:58:24;14.80;;;13.32;;
21941;SDS011;11135;54.192;15.670;2022-08-19T08:04:28;13.93;;;12.63;;
21941;SDS011;11135;54.192;15.670;2022-08-19T08:10:50;13.70;;;12.50;;
21941;SDS011;11135;54.192;15.670;2022-08-19T08:16:57;15.00;;;13.43;;
21941;SDS011;11135;54.192;15.670;2022-08-19T08:23:01;14.35;;;13.05;;
21941;SDS011;11135;54.192;15.670;2022-08-19T08:29:24;13.75;;;12.45;;
21941;SDS011;11135;54.192;15.670;2022-08-19T08:35:35;13.45;;;12.25;;
21941;SDS011;11135;54.192;15.670;2022-08-19T08:41:43;13.32;;;12.23;;
21941;SDS011;11135;54.192;15.670;2022-08-19T08:47:52;14.75;;;12.93;;
21941;SDS011;11135;54.192;15.670;2022-08-19T08:54:02;14.13;;;12.73;;
21941;SDS011;11135;54.192;15.670;2022-08-19T09:00:12;13.80;;;12.60;;
21941;SDS011;11135;54.192;15.670;2022-08-19T09:06:26;14.13;;;12.93;;
21941;SDS011;11135;54.192;15.670;2022-08-19T09:12:38;13.77;;;12.57;;
21941;SDS011;11135;54.192;15.670;2022-08-19T09:18:49;13.40;;;12.25;;
21941;SDS011;11135;54.192;15.670;2022-08-19T09:24:56;14.43;;;13.13;;
21941;SDS011;11135;54.192;15.670;2022-08-19T09:31:00;15.07;;;13.57;;
21941;SDS011;11135;54.192;15.670;2022-08-19T09:37:03;17.42;;;15.73;;
21941;SDS011;11135;54.192;15.670;2022-08-19T09:43:10;18.83;;;16.60;;
21941;SDS011;11135;54.192;15.670;2022-08-19T09:49:14;17.02;;;15.55;;
21941;SDS011;11135;54.192;15.670;2022-08-19T09:55:19;17.65;;;16.02;;
21941;SDS011;11135;54.192;15.670;2022-08-19T10:01:28;18.10;;;16.10;;
21941;SDS011;11135;54.192;15.670;2022-08-19T10:07:33;17.63;;;16.23;;
21941;SDS011;11135;54.192;15.670;2022-08-19T10:13:37;18.67;;;17.02;;
21941;SDS011;11135;54.192;15.670;2022-08-19T10:19:42;17.50;;;15.73;;
21941;SDS011;11135;54.192;15.670;2022-08-19T10:25:59;18.05;;;16.38;;
21941;SDS011;11135;54.192;15.670;2022-08-19T10:32:04;16.83;;;15.25;;
21941;SDS011;11135;54.192;15.670;2022-08-19T10:38:12;16.70;;;15.10;;
21941;SDS011;11135;54.192;15.670;2022-08-19T10:44:15;17.98;;;15.43;;
21941;SDS011;11135;54.192;15.670;2022-08-19T10:50:19;17.70;;;15.85;;
21941;SDS011;11135;54.192;15.670;2022-08-19T10:56:43;17.33;;;15.83;;
21941;SDS011;11135;54.192;15.670;2022-08-19T11:02:58;18.50;;;16.60;;
21941;SDS011;11135;54.192;15.670;2022-08-19T11:09:02;19.02;;;17.42;;
21941;SDS011;11135;54.192;15.670;2022-08-19T11:15:08;18.58;;;16.70;;
21941;SDS011;11135;54.192;15.670;2022-08-19T11:21:14;18.75;;;17.05;;
21941;SDS011;11135;54.192;15.670;2022-08-19T11:27:20;19.23;;;17.42;;
21941;SDS011;11135;54.192;15.670;2022-08-19T11:33:26;17.98;;;16.40;;
21941;SDS011;11135;54.192;15.670;2022-08-19T11:39:30;18.02;;;16.50;;
21941;SDS011;11135;54.192;15.670;2022-08-19T11:45:34;19.73;;;18.05;;
21941;SDS011;11135;54.192;15.670;2022-08-19T11:51:40;19.00;;;17.20;;
21941;SDS011;11135;54.192;15.670;2022-08-19T11:57:45;18.30;;;16.63;;
21941;SDS011;11135;54.192;15.670;2022-08-19T12:03:50;17.40;;;15.70;;
21941;SDS011;11135;54.192;15.670;2022-08-19T12:09:57;17.25;;;15.57;;
21941;SDS011;11135;54.192;15.670;2022-08-19T12:16:00;16.85;;;15.15;;
21941;SDS011;11135;54.192;15.670;2022-08-19T12:22:11;16.50;;;14.80;;
21941;SDS011;11135;54.192;15.670;2022-08-19T12:28:16;16.00;;;14.38;;
21941;SDS011;11135;54.192;15.670;2022-08-19T12:34:20;15.70;;;14.10;;
21941;SDS011;11135;54.192;15.670;2022-08-19T12:40:24;17.17;;;15.05;;
21941;SDS011;11135;54.192;15.670;2022-08-19T12:46:29;15.05;;;13.45;;
21941;SDS011;11135;54.192;15.670;2022-08-19T12:52:34;14.98;;;13.48;;
21941;SDS011;11135;54.192;15.670;2022-08-19T12:58:39;15.05;;;13.63;;
21941;SDS011;11135;54.192;15.670;2022-08-19T13:04:53;15.65;;;13.15;;
21941;SDS011;11135;54.192;15.670;2022-08-19T13:10:56;14.45;;;13.07;;
21941;SDS011;11135;54.192;15.670;2022-08-19T13:17:11;13.93;;;12.63;;
21941;SDS011;11135;54.192;15.670;2022-08-19T13:23:17;13.93;;;12.52;;
21941;SDS011;11135;54.192;15.670;2022-08-19T13:29:20;13.43;;;12.02;;
21941;SDS011;11135;54.192;15.670;2022-08-19T13:35:47;13.25;;;12.15;;
21941;SDS011;11135;54.192;15.670;2022-08-19T13:41:55;14.20;;;12.80;;
21941;SDS011;11135;54.192;15.670;2022-08-19T13:48:00;13.65;;;12.35;;
21941;SDS011;11135;54.192;15.670;2022-08-19T13:54:09;13.02;;;11.88;;
21941;SDS011;11135;54.192;15.670;2022-08-19T14:00:16;13.88;;;12.48;;
21941;SDS011;11135;54.192;15.670;2022-08-19T14:06:21;14.75;;;12.57;;
21941;SDS011;11135;54.192;15.670;2022-08-19T14:12:25;13.38;;;12.05;;
21941;SDS011;11135;54.192;15.670;2022-08-19T14:18:31;19.20;;;13.75;;
21941;SDS011;11135;54.192;15.670;2022-08-19T14:24:34;14.65;;;13.23;;
21941;SDS011;11135;54.192;15.670;2022-08-19T14:30:40;16.20;;;13.80;;
21941;SDS011;11135;54.192;15.670;2022-08-19T14:36:47;15.73;;;14.05;;
21941;SDS011;11135;54.192;15.670;2022-08-19T14:42:51;15.50;;;13.90;;
21941;SDS011;11135;54.192;15.670;2022-08-19T14:48:57;14.65;;;13.10;;
21941;SDS011;11135;54.192;15.670;2022-08-19T14:55:11;15.15;;;12.38;;
21941;SDS011;11135;54.192;15.670;2022-08-19T15:01:15;14.18;;;12.68;;
21941;SDS011;11135;54.192;15.670;2022-08-19T15:07:22;14.50;;;13.00;;
21941;SDS011;11135;54.192;15.670;2022-08-19T15:13:31;15.68;;;13.80;;
21941;SDS011;11135;54.192;15.670;2022-08-19T15:19:35;14.85;;;13.45;;
21941;SDS011;11135;54.192;15.670;2022-08-19T15:25:39;15.05;;;13.63;;
21941;SDS011;11135;54.192;15.670;2022-08-19T15:31:44;16.13;;;13.23;;
21941;SDS011;11135;54.192;15.670;2022-08-19T15:37:50;13.90;;;12.40;;
21941;SDS011;11135;54.192;15.670;2022-08-19T15:43:55;16.17;;;12.85;;
21941;SDS011;11135;54.192;15.670;2022-08-19T15:50:02;13.60;;;12.30;;
21941;SDS011;11135;54.192;15.670;2022-08-19T15:56:11;13.50;;;11.25;;
21941;SDS011;11135;54.192;15.670;2022-08-19T16:02:15;11.02;;;10.00;;
21941;SDS011;11135;54.192;15.670;2022-08-19T16:08:39;11.83;;;9.83;;
21941;SDS011;11135;54.192;15.670;2022-08-19T16:14:50;13.00;;;10.25;;
21941;SDS011;11135;54.192;15.670;2022-08-19T16:20:54;10.45;;;9.27;;
21941;SDS011;11135;54.192;15.670;2022-08-19T16:26:59;10.90;;;8.57;;
21941;SDS011;11135;54.192;15.670;2022-08-19T16:33:02;10.00;;;9.00;;
21941;SDS011;11135;54.192;15.670;2022-08-19T16:39:06;10.60;;;9.48;;
21941;SDS011;11135;54.192;15.670;2022-08-19T16:45:12;11.02;;;9.00;;
21941;SDS011;11135;54.192;15.670;2022-08-19T16:51:15;12.20;;;9.60;;
21941;SDS011;11135;54.192;15.670;2022-08-19T16:57:20;12.93;;;11.48;;
21941;SDS011;11135;54.192;15.670;2022-08-19T17:03:26;12.05;;;9.38;;
21941;SDS011;11135;54.192;15.670;2022-08-19T17:09:37;10.73;;;8.98;;
21941;SDS011;11135;54.192;15.670;2022-08-19T17:15:42;11.63;;;9.13;;
21941;SDS011;11135;54.192;15.670;2022-08-19T17:21:47;9.82;;;8.70;;
21941;SDS011;11135;54.192;15.670;2022-08-19T17:27:50;12.27;;;7.90;;
21941;SDS011;11135;54.192;15.670;2022-08-19T17:33:55;11.55;;;8.35;;
21941;SDS011;11135;54.192;15.670;2022-08-19T17:40:01;11.25;;;8.07;;
21941;SDS011;11135;54.192;15.670;2022-08-19T17:46:06;10.93;;;7.80;;
21941;SDS011;11135;54.192;15.670;2022-08-19T17:52:12;11.82;;;8.68;;
21941;SDS011;11135;54.192;15.670;2022-08-19T17:58:17;11.52;;;8.60;;
21941;SDS011;11135;54.192;15.670;2022-08-19T18:04:23;12.20;;;9.23;;
21941;SDS011;11135;54.192;15.670;2022-08-19T18:10:29;11.27;;;9.48;;
21941;SDS011;11135;54.192;15.670;2022-08-19T18:16:37;11.32;;;9.07;;
21941;SDS011;11135;54.192;15.670;2022-08-19T18:22:41;11.68;;;9.93;;
21941;SDS011;11135;54.192;15.670;2022-08-19T18:28:46;11.35;;;9.68;;
21941;SDS011;11135;54.192;15.670;2022-08-19T18:34:53;11.35;;;9.02;;
21941;SDS011;11135;54.192;15.670;2022-08-19T18:40:57;11.77;;;9.80;;
21941;SDS011;11135;54.192;15.670;2022-08-19T18:47:20;10.37;;;9.27;;
21941;SDS011;11135;54.192;15.670;2022-08-19T18:53:44;12.10;;;10.90;;
21941;SDS011;11135;54.192;15.670;2022-08-19T18:59:49;11.90;;;10.80;;
21941;SDS011;11135;54.192;15.670;2022-08-19T19:05:54;15.30;;;11.80;;
21941;SDS011;11135;54.192;15.670;2022-08-19T19:12:00;14.32;;;11.93;;
21941;SDS011;11135;54.192;15.670;2022-08-19T19:18:05;14.80;;;13.30;;
21941;SDS011;11135;54.192;15.670;2022-08-19T19:24:10;14.50;;;12.90;;
21941;SDS011;11135;54.192;15.670;2022-08-19T19:30:16;14.32;;;12.90;;
21941;SDS011;11135;54.192;15.670;2022-08-19T19:36:20;15.73;;;12.52;;
21941;SDS011;11135;54.192;15.670;2022-08-19T19:42:25;14.23;;;11.95;;
21941;SDS011;11135;54.192;15.670;2022-08-19T19:48:30;13.40;;;12.00;;
21941;SDS011;11135;54.192;15.670;2022-08-19T19:54:34;13.75;;;12.20;;
21941;SDS011;11135;54.192;15.670;2022-08-19T20:00:39;12.43;;;11.23;;
21941;SDS011;11135;54.192;15.670;2022-08-19T20:06:44;15.80;;;11.93;;
21941;SDS011;11135;54.192;15.670;2022-08-19T20:12:50;15.07;;;11.98;;
21941;SDS011;11135;54.192;15.670;2022-08-19T20:18:55;14.02;;;11.40;;
21941;SDS011;11135;54.192;15.670;2022-08-19T20:25:02;12.35;;;11.00;;
21941;SDS011;11135;54.192;15.670;2022-08-19T20:31:07;13.02;;;11.57;;
21941;SDS011;11135;54.192;15.670;2022-08-19T20:37:12;15.88;;;11.20;;
21941;SDS011;11135;54.192;15.670;2022-08-19T20:43:17;13.07;;;11.63;;
21941;SDS011;11135;54.192;15.670;2022-08-19T20:49:22;15.20;;;11.68;;
21941;SDS011;11135;54.192;15.670;2022-08-19T20:55:28;16.60;;;10.75;;
21941;SDS011;11135;54.192;15.670;2022-08-19T21:01:33;12.30;;;11.05;;
21941;SDS011;11135;54.192;15.670;2022-08-19T21:07:36;12.93;;;11.23;;
21941;SDS011;11135;54.192;15.670;2022-08-19T21:13:40;13.18;;;10.55;;
21941;SDS011;11135;54.192;15.670;2022-08-19T21:19:45;11.82;;;10.60;;
21941;SDS011;11135;54.192;15.670;2022-08-19T21:25:50;14.02;;;11.55;;
21941;SDS011;11135;54.192;15.670;2022-08-19T21:31:55;14.57;;;11.75;;
21941;SDS011;11135;54.192;15.670;2022-08-19T21:38:00;13.27;;;11.93;;
21941;SDS011;11135;54.192;15.670;2022-08-19T21:44:04;12.93;;;11.63;;
21941;SDS011;11135;54.192;15.670;2022-08-19T21:50:08;13.80;;;12.30;;
21941;SDS011;11135;54.192;15.670;2022-08-19T21:56:14;14.77;;;13.27;;
21941;SDS011;11135;54.192;15.670;2022-08-19T22:02:18;18.02;;;16.13;;
21941;SDS011;11135;54.192;15.670;2022-08-19T22:08:23;19.27;;;16.42;;
21941;SDS011;11135;54.192;15.670;2022-08-19T22:14:29;21.35;;;18.30;;
21941;SDS011;11135;54.192;15.670;2022-08-19T22:20:34;25.25;;;19.83;;
21941;SDS011;11135;54.192;15.670;2022-08-19T22:26:38;24.85;;;20.77;;
21941;SDS011;11135;54.192;15.670;2022-08-19T22:32:44;28.05;;;21.77;;
21941;SDS011;11135;54.192;15.670;2022-08-19T22:38:56;33.20;;;23.00;;
21941;SDS011;11135;54.192;15.670;2022-08-19T22:45:00;34.35;;;23.90;;
21941;SDS011;11135;54.192;15.670;2022-08-19T22:51:05;29.60;;;22.08;;
21941;SDS011;11135;54.192;15.670;2022-08-19T22:57:29;29.52;;;23.00;;
21941;SDS011;11135;54.192;15.670;2022-08-19T23:03:32;27.02;;;23.27;;
21941;SDS011;11135;54.192;15.670;2022-08-19T23:09:37;30.58;;;23.92;;
21941;SDS011;11135;54.192;15.670;2022-08-19T23:15:43;28.27;;;22.70;;
21941;SDS011;11135;54.192;15.670;2022-08-19T23:21:48;26.92;;;23.48;;
21941;SDS011;11135;54.192;15.670;2022-08-19T23:27:54;25.33;;;21.20;;
21941;SDS011;11135;54.192;15.670;2022-08-19T23:34:15;22.63;;;20.33;;
21941;SDS011;11135;54.192;15.670;2022-08-19T23:40:19;22.05;;;19.75;;
21941;SDS011;11135;54.192;15.670;2022-08-19T23:46:24;20.30;;;17.85;;
21941;SDS011;11135;54.192;15.670;2022-08-19T23:52:29;22.13;;;19.92;;
21941;SDS011;11135;54.192;15.670;2022-08-19T23:58:34;20.25;;;18.40;;
